createdAt,value
2024-05-09T00:09:36.198Z,10.00
2024-05-09T00:19:36.289Z,9.40
2024-05-09T00:29:36.256Z,10.90
2024-05-09T00:39:36.215Z,14.40
2024-05-09T00:49:36.302Z,15.60
2024-05-09T00:59:36.299Z,13.10
2024-05-09T01:09:36.232Z,14.60
2024-05-09T01:19:36.549Z,16.10
2024-05-09T01:29:36.274Z,16.10
2024-05-09T01:39:36.254Z,17.30
2024-05-09T01:49:36.343Z,16.40
2024-05-09T01:59:36.300Z,18.60
2024-05-09T02:09:36.241Z,16.80
2024-05-09T02:19:36.324Z,19.30
2024-05-09T02:29:36.281Z,20.00
2024-05-09T02:39:36.284Z,20.10
2024-05-09T02:49:36.439Z,18.10
2024-05-09T02:59:36.309Z,18.70
2024-05-09T03:09:36.281Z,17.40
2024-05-09T03:19:36.314Z,18.40
2024-05-09T03:29:36.300Z,17.50
2024-05-09T03:39:36.380Z,19.20
2024-05-09T03:49:36.347Z,18.90
2024-05-09T03:59:36.322Z,18.00
2024-05-09T04:09:36.287Z,18.90
2024-05-09T04:19:36.322Z,17.70
2024-05-09T04:29:36.364Z,19.70
2024-05-09T04:39:36.359Z,17.90
2024-05-09T04:49:36.405Z,16.80
2024-05-09T04:59:36.469Z,15.30
2024-05-09T05:09:36.329Z,10.90
2024-05-09T05:19:36.391Z,10.90
2024-05-09T05:29:36.401Z,10.10
2024-05-09T05:39:36.311Z,11.10
2024-05-09T05:49:36.456Z,10.70
2024-05-09T05:59:36.342Z,9.40
2024-05-09T06:09:36.343Z,9.70
2024-05-09T06:19:36.473Z,9.40
2024-05-09T06:29:36.373Z,11.20
2024-05-09T06:39:36.339Z,10.10
2024-05-09T06:49:36.420Z,9.80
2024-05-09T06:59:36.429Z,11.30
2024-05-09T07:09:36.337Z,10.70
2024-05-09T07:19:37.089Z,7.90
2024-05-09T07:29:38.445Z,10.10
2024-05-09T07:39:36.358Z,9.00
2024-05-09T07:59:38.036Z,6.30
2024-05-09T08:09:38.378Z,7.30
2024-05-09T08:19:36.395Z,7.90
2024-05-09T08:29:36.412Z,7.70
2024-05-09T08:39:36.417Z,6.10
2024-05-09T08:49:37.712Z,6.50
2024-05-09T08:59:36.406Z,8.20
2024-05-09T09:09:36.505Z,7.60
2024-05-09T09:19:36.445Z,8.30
2024-05-09T09:29:36.437Z,6.40
2024-05-09T09:39:36.422Z,7.50
2024-05-09T09:49:36.459Z,6.50
2024-05-09T09:59:36.452Z,7.10
2024-05-09T10:09:36.457Z,6.90
2024-05-09T10:19:36.583Z,7.40
2024-05-09T10:29:36.445Z,7.20
2024-05-09T10:39:36.499Z,6.30
2024-05-09T10:49:36.490Z,6.30
2024-05-09T10:59:36.451Z,5.90
2024-05-09T11:09:36.836Z,5.60
2024-05-09T11:19:36.558Z,7.10
2024-05-09T11:29:36.470Z,6.00
2024-05-09T11:39:36.522Z,5.90
2024-05-09T11:49:36.545Z,9.00
2024-05-09T11:59:36.487Z,6.00
2024-05-09T12:09:36.524Z,5.70
2024-05-09T12:19:36.535Z,6.70
2024-05-09T12:29:38.808Z,6.40
2024-05-09T12:39:36.562Z,9.00
2024-05-09T12:49:36.735Z,7.70
2024-05-09T12:59:36.530Z,11.70
2024-05-09T13:09:36.532Z,8.20
2024-05-09T13:19:36.523Z,22.10
2024-05-09T13:29:36.533Z,10.50
2024-05-09T13:39:36.568Z,8.20
2024-05-09T13:49:37.117Z,11.70
2024-05-09T14:39:36.598Z,7.00
2024-05-09T14:49:36.624Z,8.10
2024-05-09T14:59:36.728Z,6.80
2024-05-09T15:09:36.629Z,6.40
2024-05-09T15:19:37.072Z,5.00
2024-05-09T15:39:36.654Z,5.90
2024-05-09T15:49:36.859Z,5.00
2024-05-09T15:59:36.618Z,7.40
2024-05-09T16:09:40.333Z,7.30
2024-05-09T16:19:36.646Z,4.30
2024-05-09T16:29:36.623Z,6.20
2024-05-09T16:39:36.669Z,5.90
2024-05-09T16:49:36.677Z,6.40
2024-05-09T16:59:36.638Z,6.50
2024-05-09T17:09:36.682Z,6.30
2024-05-09T17:19:36.669Z,7.20
2024-05-09T17:29:36.647Z,5.80
2024-05-09T17:49:36.702Z,6.30
2024-05-09T17:59:36.790Z,4.70
2024-05-09T18:09:36.699Z,5.20
2024-05-09T18:19:36.877Z,10.30
2024-05-09T18:29:36.699Z,7.50
2024-05-09T18:39:36.791Z,10.40
2024-05-09T18:49:36.823Z,6.70
2024-05-09T18:59:36.701Z,7.00
2024-05-09T19:09:36.806Z,8.30
2024-05-09T19:19:37.004Z,5.90
2024-05-09T19:29:36.706Z,5.20
2024-05-09T19:39:36.769Z,5.90
2024-05-09T19:49:36.782Z,6.00
2024-05-09T19:59:36.741Z,6.20
2024-05-09T20:09:36.766Z,5.60
2024-05-09T20:19:36.923Z,7.30
2024-05-09T20:29:36.741Z,7.00
2024-05-09T20:39:36.840Z,9.40
2024-05-09T20:49:36.825Z,9.70
2024-05-09T20:59:36.746Z,11.40
2024-05-09T21:09:36.779Z,12.30
2024-05-09T21:19:36.757Z,14.20
2024-05-09T21:29:36.778Z,15.20
2024-05-09T21:39:36.780Z,15.60
2024-05-09T21:49:36.851Z,16.10
2024-05-09T21:59:36.787Z,15.80
2024-05-09T22:09:36.791Z,16.70
2024-05-09T22:19:36.908Z,14.50
2024-05-09T22:29:36.793Z,15.40
2024-05-09T22:39:36.830Z,15.00
2024-05-09T22:49:36.831Z,15.60
2024-05-09T22:59:36.798Z,16.40
2024-05-09T23:09:36.819Z,15.70
2024-05-09T23:19:36.874Z,15.10
2024-05-09T23:29:36.802Z,15.30
2024-05-09T23:39:36.815Z,17.10
2024-05-09T23:59:36.807Z,14.30
